Time;durP1;ratioP1;P1;durP2;ratioP2;P2;SDS_P1;SDS_P2;PMS_P1;PMS_P2;Temp;Humidity;BMP_temperature;BMP_pressure;BME280_temperature;BME280_humidity;BME280_pressure;Samples;Min_cycle;Max_cycle;Signal;HPM_P1;HPM_P2
2023/05/15 00:02:32;;;;;;;7.03;6.33;;;12.20;1.00;;;;;;8377788;28;20338;-63
2023/05/15 00:06:33;;;;;;;6.33;5.60;;;12.10;1.00;;;;;;8396862;28;20258;-64
2023/05/15 00:10:34;;;;;;;6.70;6.10;;;12.10;36.80;;;;;;8382182;28;20236;-63
2023/05/15 00:14:35;;;;;;;7.00;6.30;;;12.10;99.90;;;;;;8385247;28;20187;-64
2023/05/15 00:18:36;;;;;;;7.83;6.23;;;12.10;99.90;;;;;;8381367;28;20276;-64
2023/05/15 00:22:37;;;;;;;8.87;6.80;;;12.10;99.90;;;;;;8381350;28;20243;-63
2023/05/15 00:26:38;;;;;;;6.87;6.17;;;12.00;99.90;;;;;;8393042;28;20265;-62
2023/05/15 00:30:42;;;;;;;6.83;6.23;;;12.00;24.70;;;;;;8395406;28;20194;-63
2023/05/15 00:34:42;;;;;;;7.10;6.40;;;11.90;1.00;;;;;;8378188;28;20189;-63
2023/05/15 00:38:43;;;;;;;7.47;6.77;;;11.90;41.30;;;;;;8379342;28;20197;-64
2023/05/15 00:42:46;;;;;;;7.67;6.83;;;11.90;99.90;;;;;;8382656;28;20208;-65
2023/05/15 00:46:48;;;;;;;7.83;6.87;;;11.80;99.90;;;;;;8385441;28;20184;-63
2023/05/15 00:50:52;;;;;;;6.90;6.17;;;11.70;99.90;;;;;;8397500;28;20200;-65
2023/05/15 00:54:54;;;;;;;7.67;6.87;;;11.60;99.90;;;;;;8378959;28;20185;-64
2023/05/15 00:58:56;;;;;;;7.90;7.10;;;11.60;99.90;;;;;;8379239;28;20216;-64
2023/05/15 01:03:00;;;;;;;8.37;7.50;;;11.60;99.90;;;;;;8376674;28;20228;-64
2023/05/15 01:07:01;;;;;;;7.17;6.47;;;11.60;3.00;;;;;;8382673;28;20194;-65
2023/05/15 01:11:05;;;;;;;7.83;7.03;;;11.60;99.90;;;;;;8375691;28;20239;-61
2023/05/15 01:15:06;;;;;;;8.53;7.73;;;11.60;99.90;;;;;;8380244;28;20212;-63
2023/05/15 01:19:07;;;;;;;8.13;6.97;;;11.50;46.00;;;;;;8375634;28;20188;-63
2023/05/15 01:23:22;;;;;;;7.83;6.60;;;11.50;95.70;;;;;;8382112;28;20209;-62
2023/05/15 01:27:41;;;;;;;9.40;8.20;;;11.50;99.90;;;;;;8385445;28;20192;-64
2023/05/15 01:31:48;;;;;;;8.73;7.83;;;11.50;99.90;;;;;;8401571;28;20264;-68
2023/05/15 01:36:11;;;;;;;7.93;6.73;;;11.50;1.00;;;;;;8358915;28;20176;-64
2023/05/15 01:40:19;;;;;;;8.07;7.27;;;11.40;92.20;;;;;;8384158;28;20216;-65
2023/05/15 01:44:25;;;;;;;8.83;7.93;;;11.50;99.90;;;;;;8381929;28;20207;-63
2023/05/15 01:48:32;;;;;;;8.73;7.90;;;11.40;1.00;;;;;;8382502;28;20188;-65
2023/05/15 01:52:39;;;;;;;8.50;7.70;;;11.40;99.90;;;;;;8368695;28;20201;-64
2023/05/15 01:56:44;;;;;;;9.17;8.27;;;11.40;99.90;;;;;;8384281;28;20189;-64
2023/05/15 02:00:46;;;;;;;10.80;9.80;;;11.30;99.90;;;;;;8389582;28;20232;-64
2023/05/15 02:04:49;;;;;;;11.03;9.93;;;11.20;99.90;;;;;;8370920;28;20237;-64
2023/05/15 02:08:51;;;;;;;11.43;10.23;;;11.00;99.90;;;;;;8385131;28;20200;-64
2023/05/15 02:12:53;;;;;;;12.70;11.40;;;10.90;99.90;;;;;;8399341;28;20234;-62
2023/05/15 02:16:54;;;;;;;13.97;12.03;;;10.90;99.90;;;;;;8401224;28;20270;-65
2023/05/15 02:20:55;;;;;;;13.43;12.03;;;10.80;99.90;;;;;;8401543;28;20205;-67
2023/05/15 02:24:56;;;;;;;12.80;11.43;;;10.80;99.90;;;;;;8400145;28;20227;-65
2023/05/15 02:29:26;;;;;;;14.97;11.63;;;10.80;99.90;;;;;;8399261;28;20188;-63
2023/05/15 02:33:30;;;;;;;13.30;11.87;;;10.80;99.90;;;;;;8395297;28;20212;-64
2023/05/15 02:37:37;;;;;;;12.77;11.40;;;10.70;99.90;;;;;;8402442;28;20193;-62
2023/05/15 02:41:39;;;;;;;12.93;11.63;;;10.70;99.90;;;;;;8372061;28;20219;-63
2023/05/15 02:45:40;;;;;;;12.90;11.53;;;10.70;99.90;;;;;;8391064;28;20189;-63
2023/05/15 02:49:42;;;;;;;12.63;11.30;;;10.70;99.90;;;;;;8398463;28;20196;-65
2023/05/15 02:53:43;;;;;;;15.40;12.27;;;10.70;99.90;;;;;;8397959;28;20192;-63
2023/05/15 02:57:44;;;;;;;13.60;12.20;;;10.70;99.90;;;;;;8388996;28;20185;-64
2023/05/15 03:01:46;;;;;;;14.67;12.57;;;10.70;99.90;;;;;;8379552;28;20247;-64
2023/05/15 03:05:48;;;;;;;12.97;11.57;;;10.70;99.90;;;;;;8377209;28;20295;-64
2023/05/15 03:09:49;;;;;;;13.50;12.07;;;10.70;99.90;;;;;;8396387;28;20211;-64
2023/05/15 03:13:50;;;;;;;12.63;10.57;;;10.70;99.90;;;;;;8384164;28;20193;-64
2023/05/15 03:17:53;;;;;;;10.73;9.73;;;10.70;99.90;;;;;;8393994;28;20272;-64
2023/05/15 03:21:54;;;;;;;10.37;9.27;;;10.70;99.90;;;;;;8375039;28;20217;-65
2023/05/15 03:25:55;;;;;;;10.10;9.10;;;10.80;99.90;;;;;;8377845;28;20280;-67
2023/05/15 03:29:56;;;;;;;10.23;9.23;;;10.90;99.90;;;;;;8377775;28;20219;-65
2023/05/15 03:33:57;;;;;;;9.63;8.70;;;11.00;99.90;;;;;;8397811;28;20223;-67
2023/05/15 03:37:58;;;;;;;10.10;9.20;;;11.00;99.90;;;;;;8398614;28;20185;-66
2023/05/15 03:42:01;;;;;;;8.43;7.63;;;11.10;99.90;;;;;;8383847;28;20209;-65
2023/05/15 03:46:02;;;;;;;9.33;8.43;;;11.10;99.90;;;;;;8381123;28;20274;-71
2023/05/15 03:50:04;;;;;;;9.13;8.23;;;11.20;99.90;;;;;;8387731;28;20278;-72
2023/05/15 03:54:05;;;;;;;10.70;9.60;;;11.20;99.90;;;;;;8382743;28;20185;-64
2023/05/15 03:58:09;;;;;;;12.20;11.10;;;11.10;99.90;;;;;;8382560;28;20195;-64
2023/05/15 04:02:10;;;;;;;12.60;11.23;;;11.00;99.90;;;;;;8397082;28;20207;-65
2023/05/15 04:06:11;;;;;;;13.70;12.23;;;10.80;99.90;;;;;;8380210;28;20205;-64
2023/05/15 04:10:12;;;;;;;13.80;12.40;;;10.80;99.90;;;;;;8397467;28;20253;-64
2023/05/15 04:14:13;;;;;;;16.80;12.80;;;10.80;99.90;;;;;;8375747;28;20203;-64
2023/05/15 04:18:14;;;;;;;13.70;12.27;;;10.80;99.90;;;;;;8387497;28;20185;-64
2023/05/15 04:22:15;;;;;;;13.67;12.27;;;10.80;99.90;;;;;;8397679;28;20200;-64
2023/05/15 04:26:17;;;;;;;11.87;10.67;;;10.90;99.90;;;;;;8383911;28;20184;-64
2023/05/15 04:30:18;;;;;;;10.97;9.93;;;10.90;99.90;;;;;;8385016;28;20232;-64
2023/05/15 04:34:19;;;;;;;12.33;10.57;;;11.00;99.90;;;;;;8375784;28;20188;-64
2023/05/15 04:38:20;;;;;;;11.67;10.53;;;11.10;99.90;;;;;;8379679;28;20188;-64
2023/05/15 04:42:21;;;;;;;10.87;9.87;;;11.20;99.90;;;;;;8395134;28;20287;-65
2023/05/15 04:46:22;;;;;;;11.37;10.27;;;11.20;99.90;;;;;;8376907;28;20181;-65
2023/05/15 04:50:23;;;;;;;10.77;9.77;;;11.20;99.90;;;;;;8386773;28;20189;-64
2023/05/15 04:54:24;;;;;;;13.73;12.33;;;11.20;99.90;;;;;;8379831;28;20189;-63
2023/05/15 04:58:27;;;;;;;13.67;11.83;;;11.20;99.90;;;;;;8397378;28;20188;-64
2023/05/15 05:02:31;;;;;;;14.30;12.90;;;11.20;99.90;;;;;;8394662;28;20303;-65
2023/05/15 05:06:35;;;;;;;14.90;12.93;;;11.20;99.90;;;;;;8396000;28;20211;-66
2023/05/15 05:10:36;;;;;;;13.53;12.13;;;11.10;99.90;;;;;;8390356;28;20241;-65
2023/05/15 05:14:40;;;;;;;14.83;13.33;;;11.10;99.90;;;;;;8382615;28;20193;-68
2023/05/15 05:18:42;;;;;;;14.07;12.67;;;11.10;99.90;;;;;;8393467;28;20189;-67
2023/05/15 05:22:43;;;;;;;14.73;13.10;;;11.00;99.90;;;;;;8396850;28;20219;-66
2023/05/15 05:26:44;;;;;;;17.63;14.27;;;11.00;99.90;;;;;;8393011;28;20181;-67
2023/05/15 05:30:49;;;;;;;16.67;14.20;;;11.00;99.90;;;;;;8380125;28;20189;-67
2023/05/15 05:34:50;;;;;;;15.83;14.23;;;11.00;99.90;;;;;;8379826;28;20193;-67
2023/05/15 05:38:51;;;;;;;16.97;15.03;;;11.00;99.90;;;;;;8397494;28;20189;-66
2023/05/15 05:42:52;;;;;;;16.07;14.40;;;11.10;99.90;;;;;;8376037;28;20242;-65
2023/05/15 05:46:53;;;;;;;16.17;14.47;;;11.10;99.90;;;;;;8393801;28;20184;-66
2023/05/15 05:50:54;;;;;;;15.17;13.60;;;11.20;99.90;;;;;;8398372;28;20343;-64
2023/05/15 05:54:55;;;;;;;16.50;14.80;;;11.30;99.90;;;;;;8373545;28;20193;-66
2023/05/15 05:59:00;;;;;;;16.10;14.13;;;11.40;99.90;;;;;;8394306;28;20271;-66
2023/05/15 06:03:04;;;;;;;15.17;13.57;;;11.50;99.90;;;;;;8386672;28;20227;-69
2023/05/15 06:07:06;;;;;;;15.50;13.13;;;11.50;99.90;;;;;;8397336;28;20192;-65
2023/05/15 06:11:22;;;;;;;16.20;14.33;;;11.50;99.90;;;;;;8397128;28;20182;-66
2023/05/15 06:15:25;;;;;;;15.63;13.97;;;11.70;99.90;;;;;;8380656;28;20271;-67
2023/05/15 06:19:26;;;;;;;13.40;12.10;;;11.90;99.90;;;;;;8387972;28;20303;-65
2023/05/15 06:23:27;;;;;;;14.57;13.07;;;12.10;99.90;;;;;;8388024;28;20225;-66
2023/05/15 06:27:37;;;;;;;13.47;12.13;;;12.20;99.90;;;;;;8387396;28;20192;-66
2023/05/15 06:31:38;;;;;;;13.27;11.87;;;12.00;99.90;;;;;;8382848;28;20273;-66
2023/05/15 06:35:39;;;;;;;15.30;12.33;;;12.00;99.90;;;;;;8400767;28;20197;-65
2023/05/15 06:39:40;;;;;;;13.90;11.73;;;12.00;99.90;;;;;;8383146;28;20231;-67
2023/05/15 06:43:41;;;;;;;12.83;11.43;;;11.90;99.90;;;;;;8387984;28;20247;-64
2023/05/15 06:47:42;;;;;;;13.50;12.10;;;11.80;99.90;;;;;;8386257;28;20193;-65
2023/05/15 06:51:46;;;;;;;15.17;11.90;;;11.70;99.90;;;;;;8391303;28;20272;-66
2023/05/15 06:55:47;;;;;;;15.10;12.80;;;11.50;99.90;;;;;;8383992;28;20204;-65
2023/05/15 06:59:48;;;;;;;14.10;12.53;;;11.40;99.90;;;;;;8387540;28;20189;-65
2023/05/15 07:03:49;;;;;;;13.57;12.17;;;11.40;99.90;;;;;;8384623;28;20219;-68
2023/05/15 07:07:50;;;;;;;14.10;12.70;;;11.30;99.90;;;;;;8382789;28;20213;-65
2023/05/15 07:11:51;;;;;;;13.23;11.83;;;11.20;99.90;;;;;;8381266;28;20192;-67
2023/05/15 07:15:52;;;;;;;16.70;14.03;;;11.30;99.90;;;;;;8384876;28;20180;-66
2023/05/15 07:19:53;;;;;;;15.27;13.67;;;11.30;99.90;;;;;;8397716;28;20197;-66
2023/05/15 07:23:57;;;;;;;16.40;14.70;;;11.30;99.90;;;;;;8394517;28;20185;-66
2023/05/15 07:28:05;;;;;;;16.07;14.40;;;11.30;99.90;;;;;;8398347;28;20293;-67
2023/05/15 07:32:08;;;;;;;14.87;13.37;;;11.30;99.90;;;;;;8396947;28;20211;-67
2023/05/15 07:36:09;;;;;;;13.77;12.43;;;11.40;99.90;;;;;;8400143;28;20188;-64
2023/05/15 07:40:10;;;;;;;14.80;13.30;;;11.40;99.90;;;;;;8398005;28;20292;-64
2023/05/15 07:44:11;;;;;;;14.73;13.17;;;11.40;99.90;;;;;;8383370;28;20217;-66
2023/05/15 07:48:16;;;;;;;16.20;14.43;;;11.40;99.90;;;;;;8384359;28;20185;-65
2023/05/15 07:52:17;;;;;;;15.77;14.00;;;11.50;99.90;;;;;;8395437;28;20176;-66
2023/05/15 07:56:22;;;;;;;16.17;14.50;;;11.50;99.90;;;;;;8386129;28;20190;-65
2023/05/15 08:00:26;;;;;;;14.00;12.60;;;11.50;99.90;;;;;;8378366;28;20216;-66
2023/05/15 08:04:27;;;;;;;14.60;13.20;;;11.50;99.90;;;;;;8395612;28;20299;-65
2023/05/15 08:08:27;;;;;;;14.73;13.10;;;11.50;99.90;;;;;;8400717;28;20180;-72
2023/05/15 08:12:28;;;;;;;15.10;13.50;;;11.50;99.90;;;;;;8399080;28;20212;-72
2023/05/15 08:16:29;;;;;;;17.27;13.40;;;11.60;99.90;;;;;;8377069;28;20235;-71
2023/05/15 08:20:30;;;;;;;13.27;11.93;;;11.60;99.90;;;;;;8384574;28;20200;-71
2023/05/15 08:24:31;;;;;;;14.17;12.77;;;11.60;99.90;;;;;;8383264;28;20184;-71
2023/05/15 08:28:32;;;;;;;13.70;12.17;;;11.60;99.90;;;;;;8382931;28;20279;-72
2023/05/15 08:32:36;;;;;;;14.93;13.33;;;11.60;99.90;;;;;;8384163;28;20280;-72
2023/05/15 08:36:37;;;;;;;12.47;11.17;;;11.70;99.90;;;;;;8377803;28;20193;-71
2023/05/15 08:40:45;;;;;;;12.60;11.20;;;11.60;99.90;;;;;;8383277;28;20218;-71
2023/05/15 08:44:47;;;;;;;12.93;11.63;;;11.60;99.90;;;;;;8397875;28;20192;-70
2023/05/15 08:48:52;;;;;;;13.90;12.33;;;11.60;99.90;;;;;;8385944;28;20247;-70
2023/05/15 08:52:57;;;;;;;13.40;12.00;;;11.60;99.90;;;;;;8399211;28;20185;-69
2023/05/15 08:56:59;;;;;;;11.43;10.23;;;11.70;99.90;;;;;;8395106;28;20299;-69
2023/05/15 09:01:01;;;;;;;11.47;10.10;;;11.80;99.90;;;;;;8395638;28;20213;-69
2023/05/15 09:05:02;;;;;;;10.60;9.60;;;12.00;99.90;;;;;;8379337;28;20201;-70
2023/05/15 09:09:12;;;;;;;9.30;8.40;;;12.10;99.90;;;;;;8396924;28;20189;-70
2023/05/15 09:13:14;;;;;;;7.60;6.90;;;12.30;99.90;;;;;;8387830;28;20196;-70
2023/05/15 09:17:15;;;;;;;6.23;5.63;;;12.40;99.90;;;;;;8397967;28;20194;-69
2023/05/15 09:21:24;;;;;;;7.07;5.70;;;12.30;99.90;;;;;;8378707;28;20206;-69
2023/05/15 09:25:39;;;;;;;6.23;5.63;;;12.30;99.90;;;;;;8391065;28;20305;-71
2023/05/15 09:29:40;;;;;;;5.47;4.93;;;12.20;99.90;;;;;;8378969;28;20189;-71
2023/05/15 09:33:41;;;;;;;5.47;4.97;;;12.20;99.90;;;;;;8395093;28;20188;-70
2023/05/15 09:37:43;;;;;;;6.03;4.73;;;12.10;99.90;;;;;;8383836;28;20189;-69
2023/05/15 09:41:44;;;;;;;5.40;4.90;;;12.10;99.90;;;;;;8386504;28;20220;-70
2023/05/15 09:45:49;;;;;;;6.17;5.57;;;12.10;99.90;;;;;;8407347;28;20191;-70
2023/05/15 09:49:51;;;;;;;6.67;6.07;;;12.20;99.90;;;;;;8386703;28;20245;-69
2023/05/15 09:53:53;;;;;;;8.37;7.57;;;12.30;99.90;;;;;;8385704;28;20190;-71
2023/05/15 09:58:11;;;;;;;10.47;9.37;;;12.20;99.90;;;;;;8410053;28;20185;-70
2023/05/15 10:02:23;;;;;;;9.80;8.90;;;12.10;99.90;;;;;;8389343;28;20221;-72
2023/05/15 10:06:24;;;;;;;11.67;9.67;;;12.00;99.90;;;;;;8406904;28;20232;-70
2023/05/15 10:10:27;;;;;;;13.50;12.10;;;11.90;99.90;;;;;;8397580;28;20193;-72
2023/05/15 10:14:30;;;;;;;12.33;11.13;;;11.90;99.90;;;;;;8385592;28;20187;-70
2023/05/15 10:18:34;;;;;;;13.90;11.70;;;11.90;99.90;;;;;;8403534;28;20280;-71
2023/05/15 10:22:42;;;;;;;11.83;10.63;;;12.00;99.90;;;;;;8385093;28;20216;-71
2023/05/15 10:26:43;;;;;;;10.83;9.83;;;12.10;99.90;;;;;;8385659;28;20196;-73
2023/05/15 10:30:45;;;;;;;11.80;10.57;;;12.10;99.90;;;;;;8394145;28;20192;-68
2023/05/15 10:34:52;;;;;;;12.10;11.00;;;12.20;99.90;;;;;;8385830;28;20188;-71
2023/05/15 10:38:53;;;;;;;14.10;12.67;;;12.20;99.90;;;;;;8374725;28;20199;-69
2023/05/15 10:42:55;;;;;;;14.87;13.37;;;12.40;99.90;;;;;;8400086;28;20245;-70
2023/05/15 10:46:56;;;;;;;14.80;13.27;;;12.50;99.90;;;;;;8387776;28;20225;-72
2023/05/15 10:51:00;;;;;;;14.93;13.47;;;12.70;99.90;;;;;;8388376;28;20225;-71
2023/05/15 10:55:03;;;;;;;14.23;12.70;;;12.70;99.90;;;;;;8401815;28;20181;-70
2023/05/15 10:59:08;;;;;;;12.27;11.07;;;12.70;99.90;;;;;;8402403;28;20212;-70
2023/05/15 11:03:13;;;;;;;12.03;10.93;;;12.60;99.90;;;;;;8406023;28;20303;-70
2023/05/15 11:07:17;;;;;;;15.03;12.10;;;12.40;99.90;;;;;;8385794;28;20194;-70
2023/05/15 11:11:56;;;;;;;13.73;12.33;;;12.30;99.90;;;;;;8384136;28;20186;-70
2023/05/15 11:15:57;;;;;;;15.30;13.80;;;12.20;99.90;;;;;;8381831;28;20215;-70
2023/05/15 11:19:59;;;;;;;14.50;12.93;;;12.20;99.90;;;;;;8390696;28;20186;-70
2023/05/15 11:24:04;;;;;;;15.27;13.67;;;12.20;99.90;;;;;;8389116;28;20224;-72
2023/05/15 11:28:06;;;;;;;14.23;12.90;;;12.30;99.90;;;;;;8388355;28;20239;-70
2023/05/15 11:32:30;;;;;;;13.53;12.23;;;12.40;99.90;;;;;;8383449;28;20186;-73
2023/05/15 11:36:32;;;;;;;15.27;13.77;;;12.40;99.90;;;;;;8383158;28;20237;-71
2023/05/15 11:41:02;;;;;;;14.47;12.97;;;12.50;99.90;;;;;;8382903;28;20215;-72
2023/05/15 11:45:08;;;;;;;14.27;12.87;;;12.70;99.90;;;;;;8396616;28;20189;-72
2023/05/15 11:49:14;;;;;;;13.27;11.97;;;13.00;99.90;;;;;;8377006;28;20189;-67
2023/05/15 11:53:15;;;;;;;13.73;12.43;;;13.10;99.90;;;;;;8398920;28;20192;-72
2023/05/15 11:57:19;;;;;;;14.40;11.73;;;13.10;99.90;;;;;;8381601;28;20193;-69
2023/05/15 12:01:20;;;;;;;11.90;10.77;;;13.20;99.90;;;;;;8397862;28;20212;-71
2023/05/15 12:05:21;;;;;;;12.73;11.53;;;13.30;99.90;;;;;;8383420;28;20220;-70
2023/05/15 12:09:26;;;;;;;9.97;9.13;;;13.40;99.90;;;;;;8399749;28;20192;-71
2023/05/15 12:13:30;;;;;;;10.63;9.63;;;13.50;99.90;;;;;;8376556;28;20188;-71
2023/05/15 12:17:32;;;;;;;10.30;8.90;;;13.50;99.90;;;;;;8383220;28;20201;-71
2023/05/15 12:21:41;;;;;;;9.87;8.97;;;13.60;99.90;;;;;;8379608;28;20222;-71
2023/05/15 12:25:48;;;;;;;10.93;8.90;;;13.60;99.90;;;;;;8379799;28;20336;-72
2023/05/15 12:29:49;;;;;;;9.50;8.63;;;13.40;99.90;;;;;;8379770;28;20176;-70
2023/05/15 12:33:51;;;;;;;10.30;9.23;;;13.30;99.90;;;;;;8360051;28;20182;-70
2023/05/15 12:37:52;;;;;;;10.60;8.67;;;13.40;99.90;;;;;;8363187;28;20193;-70
2023/05/15 12:41:57;;;;;;;10.33;8.87;;;13.40;99.90;;;;;;8377438;28;20208;-70
2023/05/15 12:45:58;;;;;;;9.53;8.63;;;13.40;99.90;;;;;;8383826;28;20185;-72
2023/05/15 12:50:00;;;;;;;8.30;7.50;;;13.50;99.90;;;;;;8379412;28;20214;-70
2023/05/15 12:54:01;;;;;;;7.30;6.57;;;13.60;99.90;;;;;;8398549;28;20189;-71
2023/05/15 12:58:06;;;;;;;7.60;6.90;;;13.40;99.90;;;;;;8379681;28;20191;-69
2023/05/15 13:02:13;;;;;;;7.50;6.80;;;13.40;99.90;;;;;;8397113;28;20201;-70
2023/05/15 13:06:21;;;;;;;7.63;6.93;;;13.40;99.90;;;;;;8378067;28;20180;-71
2023/05/15 13:10:24;;;;;;;7.17;6.47;;;13.30;99.90;;;;;;8397438;28;20215;-69
2023/05/15 13:14:28;;;;;;;8.03;7.23;;;13.30;99.90;;;;;;8371262;28;20219;-70
2023/05/15 13:18:29;;;;;;;8.70;7.83;;;13.60;99.90;;;;;;8388651;28;20184;-69
2023/05/15 13:22:35;;;;;;;9.77;7.47;;;13.80;99.90;;;;;;8391338;28;20284;-70
2023/05/15 13:26:42;;;;;;;10.77;8.50;;;14.10;99.90;;;;;;8387651;28;20197;-69
2023/05/15 13:30:44;;;;;;;9.27;8.20;;;14.30;99.90;;;;;;8403083;28;20184;-71
2023/05/15 13:34:45;;;;;;;9.73;7.87;;;14.30;99.90;;;;;;8386057;28;20204;-69
2023/05/15 13:38:46;;;;;;;9.90;9.00;;;14.40;99.90;;;;;;8384699;28;20252;-71
2023/05/15 13:42:47;;;;;;;10.77;9.77;;;14.40;99.90;;;;;;8401911;28;20299;-69
2023/05/15 13:46:52;;;;;;;11.50;10.07;;;14.60;99.90;;;;;;8388837;28;20180;-70
2023/05/15 13:50:54;;;;;;;10.83;9.53;;;14.70;99.90;;;;;;8403068;28;20193;-71
2023/05/15 13:54:55;;;;;;;9.73;8.83;;;15.00;99.90;;;;;;8389269;28;20195;-71
2023/05/15 13:58:56;;;;;;;10.30;9.30;;;15.10;99.90;;;;;;8401070;28;20181;-70
2023/05/15 14:02:57;;;;;;;12.87;9.30;;;14.90;99.90;;;;;;8404673;28;20247;-71
2023/05/15 14:06:59;;;;;;;12.43;10.17;;;15.00;99.90;;;;;;8392132;28;20216;-72
2023/05/15 14:11:03;;;;;;;11.27;10.27;;;14.90;99.90;;;;;;8401059;28;20181;-71
2023/05/15 14:15:05;;;;;;;10.07;9.17;;;15.00;99.90;;;;;;8382449;28;20190;-70
2023/05/15 14:19:06;;;;;;;11.33;10.23;;;15.40;99.90;;;;;;8402486;28;20196;-70
2023/05/15 14:23:07;;;;;;;10.00;8.90;;;15.60;1.00;;;;;;8379673;28;20209;-72
2023/05/15 14:27:08;;;;;;;9.43;8.43;;;15.60;1.00;;;;;;8384732;28;20193;-72
2023/05/15 14:31:09;;;;;;;9.67;8.77;;;15.60;1.00;;;;;;8385954;28;20184;-73
2023/05/15 14:35:13;;;;;;;11.33;9.80;;;15.80;1.00;;;;;;8403491;28;20185;-73
2023/05/15 14:39:15;;;;;;;9.97;9.00;;;16.20;99.90;;;;;;8400904;28;20195;-71
2023/05/15 14:43:18;;;;;;;10.33;9.00;;;16.50;99.90;;;;;;8381520;28;20212;-72
2023/05/15 14:47:24;;;;;;;10.63;9.43;;;16.60;99.90;;;;;;8390203;28;20208;-72
2023/05/15 14:51:25;;;;;;;14.03;10.80;;;16.60;99.90;;;;;;8383066;28;20222;-73
2023/05/15 14:55:26;;;;;;;10.13;9.23;;;16.60;99.90;;;;;;8400162;28;20282;-73
2023/05/15 14:59:31;;;;;;;10.30;9.33;;;16.70;99.90;;;;;;8385057;28;20199;-72
2023/05/15 15:03:41;;;;;;;10.23;9.17;;;16.80;99.90;;;;;;8386340;28;20300;-72
2023/05/15 15:08:04;;;;;;;10.40;9.40;;;16.80;99.90;;;;;;8397856;28;20250;-70
2023/05/15 15:12:08;;;;;;;12.70;9.53;;;16.80;99.90;;;;;;8383556;28;20269;-71
2023/05/15 15:16:10;;;;;;;10.20;9.20;;;17.00;99.90;;;;;;8402108;28;20185;-72
2023/05/15 15:20:11;;;;;;;9.90;8.90;;;17.20;99.90;;;;;;8395729;28;20283;-70
2023/05/15 15:24:16;;;;;;;9.03;8.23;;;17.80;99.90;;;;;;8399586;28;20215;-71
2023/05/15 15:28:17;;;;;;;7.13;6.50;;;18.40;99.90;;;;;;8383744;28;20193;-73
2023/05/15 15:32:19;;;;;;;8.33;6.73;;;18.90;99.90;;;;;;8400118;28;20189;-70
2023/05/15 15:36:20;;;;;;;10.47;6.73;;;18.70;61.50;;;;;;8383649;28;20216;-69
2023/05/15 15:40:25;;;;;;;5.77;5.23;;;18.50;78.10;;;;;;8391068;28;20189;-71
2023/05/15 15:44:26;;;;;;;5.47;4.97;;;18.10;91.30;;;;;;8379144;28;20245;-71
2023/05/15 15:48:27;;;;;;;6.00;5.40;;;17.40;52.30;;;;;;8386445;28;20220;-71
2023/05/15 15:52:28;;;;;;;5.70;4.80;;;17.00;99.80;;;;;;8381826;28;20193;-71
2023/05/15 15:56:29;;;;;;;5.33;4.83;;;17.10;99.90;;;;;;8387309;28;20227;-73
2023/05/15 16:00:33;;;;;;;5.50;4.37;;;17.10;94.30;;;;;;8388668;28;20184;-69
2023/05/15 16:04:35;;;;;;;5.20;4.53;;;17.10;94.90;;;;;;8378948;28;20205;-71
2023/05/15 16:08:39;;;;;;;7.77;4.27;;;16.90;76.50;;;;;;8400808;28;20205;-68
2023/05/15 16:12:41;;;;;;;6.97;4.37;;;16.40;66.50;;;;;;8382773;28;20214;-70
2023/05/15 16:16:42;;;;;;;5.50;4.97;;;15.90;99.90;;;;;;8403872;28;20181;-67
2023/05/15 16:20:43;;;;;;;6.03;5.13;;;15.50;99.90;;;;;;8378150;28;20208;-70
2023/05/15 16:24:44;;;;;;;5.77;4.80;;;15.50;99.90;;;;;;8388874;28;20310;-69
2023/05/15 16:28:46;;;;;;;6.10;4.37;;;15.70;99.90;;;;;;8384582;28;20246;-69
2023/05/15 16:32:47;;;;;;;4.90;4.40;;;16.00;99.90;;;;;;8380046;28;20218;-69
2023/05/15 16:36:54;;;;;;;5.93;4.17;;;15.90;99.90;;;;;;8383671;28;20270;-69
2023/05/15 16:40:55;;;;;;;6.13;4.50;;;15.70;99.90;;;;;;8402609;28;20208;-70
2023/05/15 16:44:59;;;;;;;4.77;4.37;;;15.40;99.90;;;;;;8391506;28;20200;-70
2023/05/15 16:49:00;;;;;;;5.20;4.53;;;15.20;99.90;;;;;;8403895;28;20267;-72
2023/05/15 16:53:02;;;;;;;5.80;4.70;;;15.10;99.90;;;;;;8379128;28;20254;-71
2023/05/15 16:57:03;;;;;;;5.03;4.60;;;15.00;99.90;;;;;;8388808;28;20199;-71
2023/05/15 17:01:10;;;;;;;6.93;6.33;;;14.80;99.90;;;;;;8389374;28;20219;-73
2023/05/15 17:05:15;;;;;;;6.83;5.53;;;14.60;1.00;;;;;;8385876;28;20215;-71
2023/05/15 17:09:16;;;;;;;6.67;6.00;;;14.40;1.00;;;;;;8389600;28;20194;-72
2023/05/15 17:13:17;;;;;;;6.30;5.70;;;14.50;1.00;;;;;;8385884;28;20193;-69
2023/05/15 17:17:19;;;;;;;5.20;4.70;;;14.50;1.00;;;;;;8399268;28;20201;-70
2023/05/15 17:21:20;;;;;;;4.50;4.10;;;14.70;1.00;;;;;;8403716;28;20215;-71
2023/05/15 17:25:21;;;;;;;4.70;4.03;;;15.00;99.90;;;;;;8399722;28;20189;-71
2023/05/15 17:29:23;;;;;;;4.53;4.10;;;15.30;99.90;;;;;;8384438;28;20195;-71
2023/05/15 17:33:24;;;;;;;5.73;3.67;;;15.40;99.90;;;;;;8382889;28;20268;-73
2023/05/15 17:37:25;;;;;;;3.67;3.30;;;15.90;99.90;;;;;;8380503;28;20207;-72
2023/05/15 17:41:27;;;;;;;3.57;3.27;;;16.60;99.90;;;;;;8400494;28;20224;-72
2023/05/15 17:45:28;;;;;;;5.00;3.50;;;16.80;77.70;;;;;;8397753;28;20193;-72
2023/05/15 17:49:34;;;;;;;3.67;3.20;;;16.50;48.50;;;;;;8394043;28;20192;-73
2023/05/15 17:53:35;;;;;;;4.70;3.80;;;16.10;73.90;;;;;;8399044;28;20197;-74
2023/05/15 17:57:36;;;;;;;3.13;2.93;;;16.10;81.50;;;;;;8383080;28;20220;-74
2023/05/15 18:01:38;;;;;;;5.10;3.80;;;15.90;82.90;;;;;;8374271;28;20231;-73
2023/05/15 18:05:39;;;;;;;3.70;3.40;;;15.70;99.80;;;;;;8300216;28;20324;-74
2023/05/15 18:09:41;;;;;;;4.20;3.80;;;15.50;99.90;;;;;;8328406;28;20218;-74
2023/05/15 18:13:43;;;;;;;3.87;3.50;;;15.10;99.90;;;;;;8344653;28;20437;-74
2023/05/15 18:17:45;;;;;;;5.17;4.67;;;14.80;99.90;;;;;;8340529;28;20209;-73
2023/05/15 18:21:46;;;;;;;4.90;4.43;;;14.40;99.90;;;;;;8331967;28;20222;-73
2023/05/15 18:25:50;;;;;;;5.00;4.60;;;14.00;99.90;;;;;;8333040;28;20282;-73
2023/05/15 18:29:51;;;;;;;5.10;4.60;;;13.70;1.00;;;;;;8349417;28;20221;-73
2023/05/15 18:33:53;;;;;;;4.70;4.30;;;13.40;1.00;;;;;;8338490;28;20190;-73
2023/05/15 18:37:57;;;;;;;4.67;4.27;;;13.20;1.00;;;;;;8330361;28;20198;-73
2023/05/15 18:41:59;;;;;;;5.37;4.87;;;13.00;99.90;;;;;;8343052;28;20210;-71
2023/05/15 18:46:00;;;;;;;5.70;4.50;;;13.00;99.90;;;;;;8332541;28;20190;-72
2023/05/15 18:50:01;;;;;;;5.27;4.70;;;13.00;99.90;;;;;;8344963;28;20191;-73
2023/05/15 18:54:02;;;;;;;6.03;4.47;;;13.00;99.90;;;;;;8324173;28;20282;-73
2023/05/15 18:58:03;;;;;;;4.90;4.47;;;13.00;99.90;;;;;;8341824;28;20205;-72
2023/05/15 19:02:04;;;;;;;5.50;5.00;;;13.10;99.90;;;;;;8331440;28;20248;-76
2023/05/15 19:06:05;;;;;;;5.00;4.50;;;13.10;99.90;;;;;;8326562;28;20192;-73
2023/05/15 19:10:07;;;;;;;7.00;5.27;;;13.00;99.90;;;;;;8335270;28;20216;-72
2023/05/15 19:14:09;;;;;;;6.10;5.50;;;13.00;99.90;;;;;;8321665;28;20198;-71
2023/05/15 19:18:10;;;;;;;6.80;6.10;;;12.90;99.90;;;;;;8318488;28;20197;-72
2023/05/15 19:22:11;;;;;;;7.83;6.60;;;12.90;99.90;;;;;;8316348;28;20222;-71
2023/05/15 19:26:12;;;;;;;7.70;6.77;;;12.90;99.90;;;;;;8320706;28;20186;-72
2023/05/15 19:30:13;;;;;;;7.07;6.20;;;12.80;99.90;;;;;;8317506;28;20193;-73
2023/05/15 19:34:14;;;;;;;8.17;6.30;;;12.70;99.90;;;;;;8315576;28;20271;-72
2023/05/15 19:38:16;;;;;;;9.00;8.10;;;12.50;99.90;;;;;;8317292;28;20187;-62
2023/05/15 19:42:26;;;;;;;8.30;7.43;;;12.30;1.00;;;;;;8321236;28;20221;-62
2023/05/15 19:46:27;;;;;;;9.13;7.10;;;12.10;1.00;;;;;;8330629;28;20224;-61
2023/05/15 19:50:28;;;;;;;8.30;7.47;;;12.00;99.90;;;;;;8319210;28;20182;-63
2023/05/15 19:54:31;;;;;;;8.97;8.07;;;11.80;99.90;;;;;;8320364;28;20185;-62
2023/05/15 19:58:32;;;;;;;8.67;7.87;;;11.70;1.00;;;;;;8313621;28;20276;-63
2023/05/15 20:02:33;;;;;;;8.77;7.83;;;11.50;99.90;;;;;;8329501;28;20212;-63
2023/05/15 20:06:34;;;;;;;9.00;7.87;;;11.30;99.90;;;;;;8318565;28;20197;-64
2023/05/15 20:10:35;;;;;;;9.70;8.80;;;11.20;23.30;;;;;;8301733;28;20292;-62
2023/05/15 20:14:40;;;;;;;10.13;9.13;;;11.10;1.00;;;;;;8315487;28;20207;-63
2023/05/15 20:18:43;;;;;;;11.60;10.50;;;11.00;99.90;;;;;;8334717;28;20261;-65
2023/05/15 20:22:46;;;;;;;14.53;11.07;;;10.90;99.90;;;;;;8314684;28;20249;-64
2023/05/15 20:26:47;;;;;;;13.87;12.07;;;10.80;1.00;;;;;;8330171;28;20199;-64
2023/05/15 20:30:48;;;;;;;12.80;11.50;;;10.70;99.90;;;;;;8334256;28;20196;-63
2023/05/15 20:34:49;;;;;;;14.73;13.13;;;10.70;99.90;;;;;;8332666;28;20187;-63
2023/05/15 20:38:54;;;;;;;14.00;12.30;;;10.60;99.90;;;;;;8314858;28;20271;-63
2023/05/15 20:42:56;;;;;;;13.77;12.47;;;10.60;99.90;;;;;;8326943;28;20222;-63
2023/05/15 20:46:58;;;;;;;13.13;11.83;;;10.50;99.90;;;;;;8318649;28;20197;-63
2023/05/15 20:51:03;;;;;;;13.07;11.67;;;10.50;99.90;;;;;;8327176;28;20186;-63